Another Hard Day at the Office Weather Stats

 
 
 

High monthly outside Temperature, 16.5 , C
Low monthly outside Temperature, 2.1 , C
High yearly outside Temperature, 31.9 , C
Low yearly outside Temperature, 0.7 , C

Low monthly barometer, 988.3 , mb
High monthly barometer, 1023.5 , mb
Low yearly barometer, 976.8 , mb
High yearly barometer 1035.7 , mb

High wind speed, 7.0 , mph
Time of High wind speed, 1:20 , mph
High monthly wind speed, 47.0 , mph
High yearly wind speed, 64.0 , mph

 

 




3122
                    Temp     Hi    Low   Out    Dew  Wind  Wind   Wind    Hi    Hi   Wind   Heat    THW                Rain    Heat    Cool    In     In    In     In     In   In Air  Wind  Wind    ISS   Arc.
  Date    Time     Out   Temp   Temp   Hum    Pt. Speed   Dir    Run Speed   Dir  Chill  Index  Index   Bar    Rain  Rate    D-D     D-D    Temp   Hum    Dew   Heat    EMC Density  Samp   Tx   Recept  Int.
---------------------------------------------------------------------------------------------------------------------------------------------------------------------------------------------------------------
22/11/14   0:05   12.6   12.6   12.6    94   11.6  11.0    SE   0.92  13.0    SE   10.1   12.7   10.2  1011.2  0.00   0.0   0.020   0.000   24.0    52   13.5   24.1   9.55 1.1679    115    1    100.0    5 
22/11/14   0:10   12.6   12.6   12.6    94   11.7  12.0    SE   1.00  14.0    SE    9.8   12.7    9.9  1011.1  0.00   0.0   0.020   0.000   23.9    52   13.5   24.1   9.55 1.1681    117    1    100.0    5 
22/11/14   0:15   12.6   12.6   12.6    94   11.7  10.0    SE   0.83  13.0   ESE   10.4   12.7   10.6  1011.0  0.00   0.0   0.020   0.000   23.9    52   13.5   24.1   9.55 1.1680    116    1    100.0    5 
22/11/14   0:20   12.7   12.7   12.6    94   11.7  12.0    SE   1.00  15.0    SE    9.9   12.8   10.0  1011.0  0.00   0.0   0.020   0.000   23.9    52   13.5   24.1   9.55 1.1680    116    1    100.0    5 
22/11/14   0:25   12.7   12.7   12.7    94   11.7  12.0    SE   1.00  15.0    SE    9.9   12.8   10.0  1010.9  0.00   0.0   0.020   0.000   23.9    52   13.4   24.1   9.55 1.1681    116    1    100.0    5 
22/11/14   0:30   12.7   12.7   12.7    94   11.7  10.0    SE   0.83  15.0   ESE   10.5   12.8   10.6  1010.9  0.00   0.0   0.020   0.000   23.9    52   13.4   24.1   9.55 1.1682    117    1    100.0    5 
22/11/14   0:35   12.7   12.7   12.7    94   11.8  11.0    SE   0.92  13.0    SE   10.3   12.8   10.4  1011.1  0.00   0.0   0.019   0.000   23.9    52   13.4   24.1   9.55 1.1684    115    1    100.0    5 
22/11/14   0:40   12.8   12.8   12.7    94   11.8  11.0    SE   0.92  13.0    SE   10.3   12.9   10.4  1011.1  0.00   0.0   0.019   0.000   23.8    52   13.4   23.9   9.55 1.1687    116    1    100.0    5 
22/11/14   0:45   12.8   12.8   12.8    94   11.8  11.0    SE   0.92  13.0    SE   10.3   12.9   10.4  1011.0  0.00   0.0   0.019   0.000   23.9    52   13.4   24.1   9.55 1.1683    117    1    100.0    5 
22/11/14   0:50   12.8   12.8   12.8    94   11.9  12.0    SE   1.00  14.0    SE   10.1   12.9   10.2  1010.9  0.00   0.0   0.019   0.000   23.8    52   13.4   23.9   9.55 1.1685    114    1    100.0    5 
22/11/14   0:55   12.9   12.9   12.8    94   11.9  12.0    SE   1.00  16.0   SSE   10.1   13.0   10.2  1010.9  0.00   0.0   0.019   0.000   23.8    52   13.4   23.9   9.55 1.1684    117    1    100.0    5 
22/11/14   1:00   12.9   12.9   12.9    94   11.9  13.0   SSE   1.08  16.0   SSE    9.9   13.0   10.0  1010.9  0.00   0.0   0.019   0.000   23.8    52   13.4   23.9   9.55 1.1685    116    1    100.0    5 
22/11/14   1:05   12.8   12.9   12.8    94   11.9  10.0    SE   0.83  13.0   SSE   10.7   12.9   10.8  1010.9  0.00   0.0   0.019   0.000   23.8    52   13.4   23.9   9.55 1.1684    117    1    100.0    5 
22/11/14   1:10   12.9   12.9   12.8    94   11.9  10.0    SE   0.83  13.0   SSE   10.7   13.0   10.8  1010.8  0.00   0.0   0.019   0.000   23.8    52   13.3   23.9   9.55 1.1686    116    1    100.0    5 
22/11/14   1:15   12.9   12.9   12.9    94   12.0  12.0   SSE   1.00  14.0    SE   10.2   13.1   10.3  1010.8  0.00   0.0   0.019   0.000   23.8    52   13.3   23.9   9.55 1.1686    115    1    100.0    5 
22/11/14   1:20   13.0   13.0   12.9    94   12.1  11.0   SSE   0.92  13.0   SSE   10.6   13.1   10.7  1011.1  0.00   0.0   0.019   0.000   23.7    52   13.3   23.8   9.56 1.1692    115    1    100.0    5 
22/11/14   1:25   13.1   13.1   13.0    94   12.1  12.0   SSE   1.00  15.0   SSE   10.3   13.2   10.4  1011.1  0.00   0.0   0.018   0.000   23.7    51   13.0   23.8   9.36 1.1696    117    1    100.0    5 
22/11/14   1:30   13.1   13.1   13.1    95   12.3  11.0   SSE   0.92  14.0     S   10.7   13.2   10.8  1011.1  0.00   0.0   0.018   0.000   23.7    51   13.0   23.8   9.36 1.1696    117    1    100.0    5 
22/11/14   1:35   13.1   13.1   13.1    94   12.2   9.0   SSE   0.75  12.0   SSE   11.4   13.2   11.5  1011.1  0.00   0.0   0.018   0.000   23.7    52   13.3   23.8   9.56 1.1692    115    1    100.0    5 
22/11/14   1:40   13.1   13.2   13.1    94   12.2   9.0   SSE   0.75  11.0   SSE   11.4   13.2   11.5  1011.1  0.00   0.0   0.018   0.000   23.7    52   13.2   23.7   9.56 1.1695    117    1    100.0    5 
22/11/14   1:45   13.2   13.2   13.1    94   12.2  10.0   SSE   0.83  12.0   SSE   11.1   13.3   11.2  1011.2  0.00   0.0   0.018   0.000   23.7    52   13.2   23.7   9.56 1.1696    118    1    100.0    5 
22/11/14   1:50   13.2   13.2   13.2    94   12.2  10.0     S   0.83  13.0     S   11.1   13.3   11.2  1011.2  0.00   0.0   0.018   0.000   23.7    51   12.9   23.7   9.36 1.1700    116    1    100.0    5 
22/11/14   1:55   13.2   13.2   13.2    94   12.2  11.0     S   0.92  13.0     S   10.8   13.3   10.9  1011.4  0.00   0.0   0.018   0.000   23.6    51   12.9   23.6   9.36 1.1704    117    1    100.0    5 
22/11/14   2:00   13.2   13.2   13.2    94   12.2   8.0     S   0.67  10.0     S   11.8   13.3   11.9  1011.3  0.00   0.0   0.018   0.000   23.6    51   12.9   23.6   9.36 1.1704    117    1    100.0    5 
22/11/14   2:05   13.2   13.2   13.2    94   12.2   8.0     S   0.67  10.0     S   11.8   13.3   11.9  1011.4  0.00   0.0   0.018   0.000   23.6    52   13.2   23.7   9.56 1.1701    117    1    100.0    5 
22/11/14   2:10   13.2   13.2   13.2    94   12.2   7.0   SSE   0.58   9.0   SSE   12.2   13.3   12.3  1011.3  0.00   0.0   0.018   0.000   23.6    52   13.2   23.7   9.56 1.1700    116    1    100.0    5 
22/11/14   2:15   13.2   13.2   13.2    94   12.2   7.0   SSE   0.58   9.0   SSE   12.2   13.3   12.3  1011.1  0.00   0.0   0.018   0.000   23.6    52   13.2   23.7   9.56 1.1698    114    1    100.0    5 
22/11/14   2:20   13.1   13.2   13.1    94   12.2   7.0   SSE   0.58   9.0   SSE   12.2   13.2   12.3  1011.2  0.00   0.0   0.018   0.000   23.6    52   13.1   23.6   9.56 1.1702    114    1    100.0    5 
22/11/14   2:25   13.1   13.2   13.1    94   12.2   7.0   SSE   0.58   8.0   SSE   12.2   13.2   12.3  1011.2  0.00   0.0   0.018   0.000   23.6    52   13.1   23.6   9.56 1.1702    116    1    100.0    5 
22/11/14   2:30   13.1   13.2   13.1    94   12.2   7.0   SSE   0.58   8.0   SSE   12.2   13.2   12.3  1011.2  0.00   0.0   0.018   0.000   23.6    52   13.1   23.6   9.56 1.1702    114    1    100.0    5 
22/11/14   2:35   13.1   13.1   13.1    94   12.2   6.0   SSE   0.50   7.0   SSE   12.4   13.2   12.5  1011.2  0.00   0.0   0.018   0.000   23.5    52   13.1   23.5   9.56 1.1705    117    1    100.0    5 
22/11/14   2:40   13.1   13.1   13.1    94   12.2   6.0   SSE   0.50   8.0   SSE   12.4   13.2   12.5  1011.1  0.00   0.0   0.018   0.000   23.5    52   13.1   23.5   9.56 1.1703    117    1    100.0    5 
22/11/14   2:45   13.1   13.1   13.1    94   12.1   5.0   SSE   0.42   7.0   SSE   12.6   13.2   12.7  1011.1  0.00   0.0   0.018   0.000   23.5    52   13.1   23.5   9.56 1.1704    117    1    100.0    5 
22/11/14   2:50   13.1   13.1   13.1    94   12.1   6.0   SSE   0.50   7.0   SSE   12.3   13.2   12.4  1011.1  0.00   0.0   0.018   0.000   23.4    52   13.0   23.4   9.57 1.1706    118    1    100.0    5 
22/11/14   2:55   13.1   13.1   13.1    94   12.1   5.0     S   0.42   8.0   SSE   12.6   13.2   12.7  1011.0  0.00   0.0   0.018   0.000   23.5    52   13.1   23.5   9.56 1.1702    116    1    100.0    5 
22/11/14   3:00   13.1   13.1   13.1    94   12.1   2.0     S   0.17   4.0     S   13.1   13.2   13.2  1011.1  0.00   0.0   0.018   0.000   23.4    52   13.0   23.4   9.57 1.1706    117    1    100.0    5 
22/11/14   3:05   13.0   13.1   13.0    94   12.1   0.0     S   0.00   2.0     S   13.0   13.1   13.1  1011.1  0.00   0.0   0.019   0.000   23.4    52   13.0   23.4   9.57 1.1706    117    1    100.0    5 
22/11/14   3:10   13.0   13.1   13.0    94   12.1   0.0     S   0.00   1.0     S   13.0   13.1   13.1  1011.0  0.00   0.0   0.019   0.000   23.4    52   13.0   23.4   9.57 1.1705    114    1    100.0    5 
22/11/14   3:15   12.9   13.0   12.9    94   12.0   1.0     S   0.08   2.0     S   12.9   13.1   13.1  1011.0  0.00   0.0   0.019   0.000   23.4    52   13.0   23.4   9.57 1.1705    117    1    100.0    5 
22/11/14   3:20   13.0   13.0   12.9    94   12.1   1.0     S   0.08   2.0     S   13.0   13.1   13.1  1011.1  0.00   0.0   0.019   0.000   23.4    52   13.0   23.4   9.57 1.1706    116    1    100.0    5 
22/11/14   3:25   13.0   13.0   12.9    94   12.1   2.0     S   0.17   3.0     S   13.0   13.1   13.1  1011.1  0.00   0.0   0.019   0.000   23.4    52   13.0   23.3   9.57 1.1709    117    1    100.0    5 
22/11/14   3:30   12.9   13.0   12.9    94   12.0   2.0     S   0.17   3.0     S   12.9   13.1   13.1  1011.2  0.00   0.0   0.019   0.000   23.4    52   13.0   23.3   9.57 1.1711    117    1    100.0    5 
22/11/14   3:35   12.9   12.9   12.9    94   12.0   3.0     S   0.25   4.0     S   12.9   13.1   13.1  1011.2  0.00   0.0   0.019   0.000   23.4    52   13.0   23.3   9.57 1.1711    117    1    100.0    5 
22/11/14   3:40   12.9   12.9   12.9    94   11.9   4.0     S   0.33   5.0     S   12.7   13.0   12.8  1011.1  0.00   0.0   0.019   0.000   23.3    52   12.9   23.3   9.57 1.1712    117    1    100.0    5 
22/11/14   3:45   12.9   12.9   12.8    95   12.1   5.0     S   0.42   6.0     S   12.4   13.0   12.5  1011.2  0.00   0.0   0.019   0.000   23.3    52   12.9   23.3   9.57 1.1713    115    1    100.0    5 
22/11/14   3:50   12.9   12.9   12.9    95   12.1   5.0     S   0.42   6.0     S   12.4   13.0   12.5  1011.0  0.00   0.0   0.019   0.000   23.3    51   12.6   23.2   9.37 1.1714    116    1    100.0    5 
22/11/14   3:55   12.9   12.9   12.9    95   12.2   5.0     S   0.42   6.0     S   12.5   13.1   12.6  1010.9  0.00   0.0   0.019   0.000   23.3    51   12.6   23.2   9.37 1.1713    117    1    100.0    5 
22/11/14   4:00   12.9   12.9   12.9    95   12.2   4.0     S   0.33   5.0     S   12.8   13.1   12.9  1010.8  0.00   0.0   0.019   0.000   23.3    51   12.6   23.2   9.37 1.1712    116    1    100.0    5 
22/11/14   4:05   12.9   13.0   12.9    95   12.2   4.0   SSE   0.33   5.0     S   12.8   13.1   12.9  1010.7  0.00   0.0   0.019   0.000   23.3    51   12.6   23.2   9.37 1.1711    116    1    100.0    5 
22/11/14   4:10   13.0   13.0   12.9    95   12.2   3.0   SSE   0.25   5.0   SSE   13.0   13.1   13.1  1010.8  0.00   0.0   0.019   0.000   23.3    51   12.6   23.2   9.37 1.1711    117    1    100.0    5 
22/11/14   4:15   13.0   13.0   13.0    95   12.2   3.0   SSE   0.25   4.0   SSE   13.0   13.1   13.1  1010.8  0.00   0.0   0.019   0.000   23.3    51   12.6   23.2   9.37 1.1714    117    1    100.0    5 
22/11/14   4:20   13.0   13.0   13.0    95   12.2   3.0   SSE   0.25   5.0   SSE   13.0   13.1   13.1  1010.8  0.00   0.0   0.019   0.000   23.3    51   12.6   23.2   9.37 1.1715    116    1    100.0    5 
22/11/14   4:25   13.0   13.0   13.0    95   12.2   3.0   SSE   0.25   4.0   SSE   13.0   13.1   13.1  1010.8  0.00   0.0   0.019   0.000   23.3    52   12.9   23.2   9.57 1.1711    115    1    100.0    5 
22/11/14   4:30   13.0   13.0   13.0    95   12.2   4.0   SSE   0.33   5.0   SSE   12.8   13.1   12.9  1010.7  0.00   0.0   0.019   0.000   23.3    52   12.9   23.2   9.57 1.1710    116    1    100.0    5 
22/11/14   4:35   13.0   13.0   12.9    95   12.2   4.0   SSE   0.33   5.0   SSE   12.8   13.1   12.9  1010.8  0.00   0.0   0.019   0.000   23.3    52   12.9   23.2   9.57 1.1711    116    1    100.0    5 
22/11/14   4:40   12.9   13.0   12.9    95   12.2   2.0   SSE   0.17   4.0   SSE   12.9   13.1   13.1  1010.8  0.00   0.0   0.019   0.000   23.3    52   12.9   23.2   9.57 1.1711    116    1    100.0    5 
22/11/14   4:45   13.0   13.0   12.9    95   12.2   5.0   SSE   0.42   6.0   SSE   12.6   13.1   12.7  1010.7  0.00   0.0   0.019   0.000   23.3    52   12.9   23.2   9.57 1.1710    117    1    100.0    5 
22/11/14   4:50   13.0   13.0   13.0    95   12.2   5.0   SSE   0.42   7.0   SSE   12.6   13.1   12.7  1010.7  0.00   0.0   0.019   0.000   23.3    52   12.9   23.2   9.57 1.1709    117    1    100.0    5 
22/11/14   4:55   13.1   13.1   13.0    95   12.3   5.0   SSE   0.42   8.0    SE   12.7   13.2   12.8  1010.7  0.00   0.0   0.018   0.000   23.3    52   12.9   23.2   9.57 1.1710    118    1    100.0    5 
22/11/14   5:00   13.2   13.2   13.1    95   12.4   6.0     S   0.50   8.0     S   12.4   13.3   12.6  1010.8  0.00   0.0   0.018   0.000   23.3    52   12.9   23.2   9.57 1.1711    116    1    100.0    5 
22/11/14   5:05   13.2   13.2   13.2    95   12.4   6.0     S   0.50   9.0     S   12.4   13.3   12.6  1010.7  0.00   0.0   0.018   0.000   23.2    52   12.8   23.2   9.57 1.1713    117    1    100.0    5 
22/11/14   5:10   13.2   13.2   13.2    95   12.4   4.0     S   0.33   6.0   SSE   13.0   13.3   13.1  1010.7  0.00   0.0   0.018   0.000   23.2    52   12.8   23.2   9.57 1.1712    116    1    100.0    5 
22/11/14   5:15   13.1   13.2   13.1    95   12.3   5.0   SSE   0.42   7.0   SSE   12.7   13.2   12.8  1010.6  0.00   0.0   0.018   0.000   23.2    52   12.8   23.2   9.57 1.1711    117    1    100.0    5 
22/11/14   5:20   13.1   13.1   13.1    95   12.3   5.0   SSE   0.42   7.0   SSE   12.7   13.2   12.8  1010.6  0.00   0.0   0.018   0.000   23.2    52   12.8   23.2   9.57 1.1711    114    1    100.0    5 
22/11/14   5:25   13.1   13.1   13.1    95   12.3   5.0   SSE   0.42   7.0   SSE   12.6   13.2   12.7  1010.6  0.00   0.0   0.018   0.000   23.2    52   12.8   23.2   9.57 1.1712    115    1    100.0    5 
22/11/14   5:30   13.1   13.1   13.1    95   12.3   5.0   SSE   0.42   6.0   SSE   12.6   13.2   12.7  1010.7  0.00   0.0   0.018   0.000   23.2    52   12.8   23.2   9.57 1.1712    116    1    100.0    5 
22/11/14   5:35   13.1   13.1   13.1    95   12.3   5.0   SSE   0.42   6.0   SSE   12.6   13.2   12.7  1010.5  0.00   0.0   0.018   0.000   23.2    52   12.8   23.2   9.57 1.1711    117    1    100.0    5 
22/11/14   5:40   13.1   13.1   13.1    95   12.3   6.0   SSE   0.50   8.0    SE   12.3   13.2   12.4  1010.4  0.00   0.0   0.018   0.000   23.2    52   12.8   23.2   9.57 1.1709    117    1    100.0    5 
22/11/14   5:45   13.1   13.1   13.1    95   12.3   6.0   SSE   0.50   8.0   SSE   12.3   13.2   12.4  1010.5  0.00   0.0   0.018   0.000   23.2    52   12.8   23.2   9.57 1.1710    117    1    100.0    5 
22/11/14   5:50   13.1   13.1   13.1    95   12.3   6.0   SSE   0.50   7.0   SSE   12.3   13.2   12.4  1010.4  0.00   0.0   0.018   0.000   23.2    52   12.8   23.2   9.57 1.1709    116    1    100.0    5 
22/11/14   5:55   13.0   13.1   13.0    95   12.2   5.0   SSE   0.42   6.0   SSE   12.6   13.1   12.7  1010.5  0.00   0.0   0.019   0.000   23.2    52   12.8   23.2   9.57 1.1710    116    1    100.0    5 
22/11/14   6:00   13.0   13.1   13.0    95   12.2   6.0     S   0.50   7.0     S   12.3   13.1   12.4  1010.6  0.00   0.0   0.019   0.000   23.2    52   12.8   23.2   9.57 1.1711    118    1    100.0    5 
22/11/14   6:05   13.0   13.0   13.0    95   12.2   6.0     S   0.50   7.0     S   12.3   13.1   12.4  1010.6  0.00   0.0   0.019   0.000   23.2    52   12.8   23.1   9.58 1.1715    116    1    100.0    5 
22/11/14   6:10   12.9   13.0   12.9    95   12.2   5.0     S   0.42   6.0     S   12.5   13.1   12.6  1010.8  0.00   0.0   0.019   0.000   23.2    52   12.8   23.1   9.58 1.1716    117    1    100.0    5 
22/11/14   6:15   12.9   13.0   12.9    95   12.2   4.0   SSW   0.33   6.0   SSW   12.8   13.1   12.9  1010.7  0.00   0.0   0.019   0.000   23.2    52   12.8   23.1   9.58 1.1715    117    1    100.0    5 
22/11/14   6:20   12.9   13.0   12.9    95   12.2   5.0   SSE   0.42   7.0   SSE   12.5   13.1   12.6  1010.7  0.00   0.0   0.019   0.000   23.2    52   12.8   23.1   9.58 1.1716    116    1    100.0    5 
22/11/14   6:25   13.0   13.0   12.9    96   12.4   5.0   SSE   0.42   7.0   SSE   12.6   13.1   12.7  1010.9  0.00   0.0   0.019   0.000   23.2    52   12.8   23.1   9.58 1.1718    117    1    100.0    5 
22/11/14   6:30   13.0   13.0   13.0    95   12.2   5.0     S   0.42   6.0     S   12.6   13.1   12.7  1010.9  0.00   0.0   0.019   0.000   23.2    52   12.8   23.1   9.58 1.1717    117    1    100.0    5 
22/11/14   6:35   12.9   13.0   12.9    95   12.2   4.0     S   0.33   5.0     S   12.8   13.1   12.9  1010.9  0.00   0.0   0.019   0.000   23.2    52   12.8   23.1   9.58 1.1718    116    1    100.0    5 
22/11/14   6:40   12.9   12.9   12.9    95   12.2   5.0     S   0.42   6.0     S   12.5   13.1   12.6  1011.2  0.00   0.0   0.019   0.000   23.2    52   12.8   23.1   9.58 1.1721    117    1    100.0    5 
22/11/14   6:45   12.9   12.9   12.9    95   12.1   4.0   SSW   0.33   5.0   SSW   12.7   13.0   12.8  1011.2  0.00   0.0   0.019   0.000   23.1    52   12.7   23.0   9.58 1.1724    117    1    100.0    5 
22/11/14   6:50   12.8   12.9   12.8    95   12.1   4.0   SSW   0.33   6.0   SSW   12.6   12.9   12.7  1011.1  0.00   0.0   0.019   0.000   23.2    52   12.8   23.1   9.58 1.1720    116    1    100.0    5 
22/11/14   6:55   12.9   12.9   12.8    95   12.1   3.0   SSW   0.25   5.0   SSW   12.9   13.0   13.0  1011.1  0.00   0.0   0.019   0.000   23.2    52   12.8   23.1   9.58 1.1721    116    1    100.0    5 
22/11/14   7:00   12.9   12.9   12.8    96   12.3   4.0   SSW   0.33   5.0   SSW   12.7   13.0   12.8  1011.2  0.00   0.0   0.019   0.000   23.1    52   12.7   23.0   9.58 1.1724    118    1    100.0    5 
22/11/14   7:05   12.9   12.9   12.9    96   12.3   4.0     S   0.33   5.0     S   12.7   13.0   12.8  1011.3  0.00   0.0   0.019   0.000   23.1    52   12.7   23.0   9.58 1.1725    117    1    100.0    5 
22/11/14   7:10   12.9   12.9   12.9    95   12.1   4.0     S   0.33   5.0     S   12.7   13.0   12.8  1011.3  0.00   0.0   0.019   0.000   23.1    52   12.7   23.0   9.58 1.1725    116    1    100.0    5 
22/11/14   7:15   12.9   12.9   12.8    96   12.3   4.0     S   0.33   5.0     S   12.7   13.0   12.8  1011.3  0.00   0.0   0.019   0.000   23.1    52   12.7   23.0   9.58 1.1725    117    1    100.0    5 
22/11/14   7:20   12.9   12.9   12.8    96   12.3   2.0     S   0.17   3.0     S   12.9   13.0   13.0  1011.3  0.00   0.0   0.019   0.000   23.1    52   12.7   23.0   9.58 1.1725    117    1    100.0    5 
22/11/14   7:25   12.9   12.9   12.9    96   12.3   3.0     S   0.25   4.0     S   12.9   13.0   13.0  1011.3  0.00   0.0   0.019   0.000   23.1    52   12.7   23.0   9.58 1.1725    115    1    100.0    5 
22/11/14   7:30   12.9   12.9   12.9    96   12.3   4.0     S   0.33   5.0     S   12.8   13.1   12.9  1011.2  0.00   0.0   0.019   0.000   23.1    52   12.7   23.0   9.58 1.1725    116    1    100.0    5 
22/11/14   7:35   12.9   12.9   12.9    96   12.3   5.0     S   0.42   6.0     S   12.5   13.1   12.6  1011.3  0.00   0.0   0.019   0.000   23.1    52   12.7   23.0   9.58 1.1725    117    1    100.0    5 
22/11/14   7:40   13.0   13.0   12.9    96   12.4   6.0     S   0.50   7.0     S   12.3   13.1   12.4  1011.4  0.00   0.0   0.019   0.000   23.1    52   12.7   23.0   9.58 1.1727    117    1    100.0    5 
22/11/14   7:45   13.0   13.0   12.9    96   12.4   7.0     S   0.58   9.0     S   12.1   13.1   12.2  1011.7  0.00   0.0   0.019   0.000   23.1    52   12.7   23.0   9.58 1.1729    117    1    100.0    5 
22/11/14   7:50   12.9   13.0   12.9    96   12.3   7.0   SSW   0.58   8.0     S   12.0   13.1   12.1  1011.7  0.00   0.0   0.019   0.000   23.1    52   12.7   23.0   9.58 1.1730    116    1    100.0    5 
22/11/14   7:55   13.1   13.1   12.9    96   12.4   7.0   SSW   0.58   8.0   SSW   12.1   13.2   12.2  1011.8  0.00   0.0   0.018   0.000   23.1    53   13.0   23.1   9.71 1.1728    116    1    100.0    5 
22/11/14   8:00   13.0   13.1   13.0    96   12.4   7.0   SSW   0.58   8.0   SSW   12.1   13.1   12.2  1011.9  0.00   0.0   0.019   0.000   23.1    53   13.0   23.1   9.71 1.1729    117    1    100.0    5 
22/11/14   8:05   13.0   13.0   13.0    96   12.4   7.0   SSW   0.58   8.0   SSW   12.1   13.1   12.2  1011.9  0.00   0.0   0.019   0.000   23.1    53   13.0   23.1   9.71 1.1729    118    1    100.0    5 
22/11/14   8:10   13.0   13.0   12.9    96   12.4   7.0   SSW   0.58   8.0     S   12.1   13.1   12.2  1012.0  0.00   0.0   0.019   0.000   23.1    53   13.0   23.1   9.71 1.1730    117    1    100.0    5 
22/11/14   8:15   13.0   13.0   12.9    96   12.4   7.0   SSW   0.58   8.0   SSW   12.1   13.1   12.2  1012.1  0.00   0.0   0.019   0.000   23.1    53   13.0   23.1   9.71 1.1731    116    1    100.0    5 
22/11/14   8:20   13.0   13.0   13.0    96   12.4   7.0   SSW   0.58   8.0   SSW   12.1   13.1   12.2  1012.1  0.00   0.0   0.019   0.000   23.2    53   13.1   23.1   9.70 1.1728    117    1    100.0    5 
22/11/14   8:25   13.0   13.0   13.0    96   12.4   7.0   SSW   0.58   8.0     S   12.1   13.1   12.2  1012.1  0.00   0.0   0.019   0.000   23.1    53   13.0   23.1   9.71 1.1732    116    1    100.0    5 
22/11/14   8:30   13.0   13.0   13.0    96   12.4   7.0   SSW   0.58   8.0     S   12.1   13.1   12.2  1012.2  0.00   0.0   0.019   0.000   23.1    53   13.0   23.1   9.71 1.1732    116    1    100.0    5 
22/11/14   8:35   13.0   13.0   13.0    96   12.4   6.0   SSW   0.50   8.0     S   12.3   13.1   12.4  1012.1  0.00   0.0   0.019   0.000   23.1    53   13.0   23.1   9.71 1.1731    113    1     99.1    5 
22/11/14   8:40   13.0   13.0   13.0    96   12.4   5.0   SSW   0.42   6.0   SSW   12.6   13.1   12.7  1012.1  0.00   0.0   0.019   0.000   23.1    53   13.0   23.1   9.71 1.1731    115    1    100.0    5 
22/11/14   8:45   13.0   13.0   13.0    96   12.4   5.0   SSW   0.42   7.0   SSW   12.6   13.1   12.7  1012.2  0.00   0.0   0.019   0.000   23.1    53   13.0   23.1   9.71 1.1732    116    1    100.0    5 
22/11/14   8:50   13.0   13.0   13.0    96   12.4   6.0   SSW   0.50   7.0   SSW   12.3   13.1   12.4  1012.2  0.00   0.0   0.019   0.000   23.1    53   13.0   23.1   9.71 1.1732    116    1    100.0    5 
22/11/14   8:55   13.1   13.1   13.0    96   12.4   5.0   SSW   0.42   7.0   SSW   12.6   13.2   12.7  1012.1  0.00   0.0   0.018   0.000   23.1    53   13.0   23.1   9.71 1.1731    113    1     99.1    5 
22/11/14   9:00   13.0   13.1   13.0    96   12.4   5.0   SSW   0.42   6.0   SSW   12.6   13.1   12.7  1012.1  0.00   0.0   0.019   0.000   23.1    53   13.0   23.1   9.71 1.1731    117    1    100.0    5 
22/11/14   9:05   13.0   13.1   13.0    96   12.4   4.0   SSW   0.33   6.0   SSW   12.8   13.1   12.9  1012.1  0.00   0.0   0.019   0.000   23.1    53   13.0   23.1   9.71 1.1731    115    1    100.0    5 
22/11/14   9:10   12.9   13.0   12.9    96   12.3   5.0     S   0.42   6.0   SSW   12.5   13.1   12.6  1012.2  0.00   0.0   0.019   0.000   23.1    53   13.0   23.1   9.71 1.1733    118    1    100.0    5 
22/11/14   9:15   12.9   12.9   12.9    96   12.3   5.0     S   0.42   6.0     S   12.4   13.0   12.5  1012.3  0.00   0.0   0.019   0.000   23.1    53   13.0   23.1   9.71 1.1734    116    1    100.0    5 
22/11/14   9:20   12.8   12.9   12.8    96   12.2   5.0   SSW   0.42   6.0   SSW   12.3   12.9   12.4  1012.4  0.00   0.0   0.019   0.000   23.2    54   13.3   23.2   9.88 1.1729    117    1    100.0    5 
22/11/14   9:25   12.8   12.8   12.8    96   12.2   4.0   SSW   0.33   6.0   SSW   12.6   12.9   12.7  1012.3  0.00   0.0   0.019   0.000   23.1    54   13.3   23.1   9.88 1.1730    117    1    100.0    5 
22/11/14   9:30   12.9   12.9   12.8    96   12.3   2.0   SSW   0.17   4.0   SSW   12.9   13.0   13.0  1012.3  0.00   0.0   0.019   0.000   23.2    54   13.3   23.2   9.88 1.1728    117    1    100.0    5 
22/11/14   9:35   12.9   12.9   12.8    96   12.3   4.0   SSW   0.33   5.0   SSW   12.8   13.1   12.9  1012.3  0.00   0.0   0.019   0.000   23.2    54   13.3   23.2   9.88 1.1727    116    1    100.0    5 
22/11/14   9:40   12.9   12.9   12.9    96   12.3   5.0     S   0.42   6.0     S   12.5   13.1   12.6  1012.4  0.00   0.0   0.019   0.000   23.2    54   13.3   23.2   9.88 1.1729    115    1    100.0    5 
22/11/14   9:45   12.9   12.9   12.9    96   12.3   5.0     S   0.42   7.0     S   12.5   13.1   12.6  1012.5  0.00   0.0   0.019   0.000   23.2    55   13.7   23.3  10.07 1.1723    117    1    100.0    5 
22/11/14   9:50   12.9   12.9   12.9    96   12.3   5.0     S   0.42   7.0     S   12.5   13.1   12.6  1012.5  0.00   0.0   0.019   0.000   23.2    55   13.7   23.3  10.07 1.1723    117    1    100.0    5 
22/11/14   9:55   13.0   13.0   12.9    96   12.4   4.0     S   0.33   5.0     S   12.8   13.1   12.9  1012.5  0.00   0.0   0.019   0.000   23.3    55   13.7   23.4  10.07 1.1720    117    1    100.0    5 
22/11/14  10:00   13.0   13.0   12.9    96   12.4   4.0     S   0.33   5.0     S   12.8   13.1   12.9  1012.5  0.00   0.0   0.019   0.000   23.3    55   13.8   23.4  10.07 1.1718    116    1    100.0    5 
22/11/14  10:05   12.9   12.9   12.9    96   12.3   5.0     S   0.42   6.0     S   12.5   13.1   12.6  1012.5  0.00   0.0   0.019   0.000   23.3    55   13.8   23.4  10.07 1.1718    115    1    100.0    5 
22/11/14  10:10   13.0   13.0   12.9    96   12.4   5.0     S   0.42   7.0     S   12.6   13.1   12.7  1012.5  0.00   0.0   0.019   0.000   23.4    55   13.8   23.5  10.07 1.1715    117    1    100.0    5 
22/11/14  10:15   13.1   13.1   13.0    96   12.4   5.0     S   0.42   6.0     S   12.6   13.2   12.7  1012.6  0.00   0.0   0.018   0.000   23.4    55   13.8   23.5  10.07 1.1716    117    1    100.0    5 
22/11/14  10:20   13.1   13.1   13.0    96   12.4   4.0     S   0.33   6.0     S   12.9   13.2   13.0  1012.6  0.00   0.0   0.018   0.000   23.4    55   13.9   23.6  10.07 1.1713    116    1    100.0    5 
22/11/14  10:25   13.0   13.1   13.0    96   12.4   3.0     S   0.25   4.0     S   13.0   13.1   13.1  1012.6  0.00   0.0   0.019   0.000   23.4    54   13.6   23.6   9.87 1.1717    117    1    100.0    5 
22/11/14  10:30   13.0   13.0   13.0    96   12.4   2.0     S   0.17   3.0     S   13.0   13.1   13.1  1012.6  0.00   0.0   0.019   0.000   23.5    54   13.7   23.6   9.86 1.1714    117    1    100.0    5 
22/11/14  10:35   13.0   13.0   12.9    96   12.4   1.0     S   0.08   3.0     S   13.0   13.1   13.1  1012.5  0.00   0.0   0.019   0.000   23.6    54   13.7   23.7   9.86 1.1711    117    1    100.0    5 
22/11/14  10:40   13.0   13.0   12.9    96   12.4   0.0     S   0.00   2.0     S   13.0   13.1   13.1  1012.5  0.00   0.0   0.019   0.000   23.6    54   13.8   23.8   9.86 1.1708    117    1    100.0    5 
22/11/14  10:45   13.0   13.0   12.9    96   12.4   0.0     S   0.00   1.0     S   13.0   13.1   13.1  1012.5  0.00   0.0   0.019   0.000   23.6    54   13.8   23.8   9.86 1.1707    116    1    100.0    5 
22/11/14  10:50   13.1   13.1   13.0    97   12.6   0.0     S   0.00   1.0     S   13.1   13.2   13.2  1012.5  0.00   0.0   0.018   0.000   23.6    54   13.8   23.8   9.86 1.1707    117    1    100.0    5 
22/11/14  10:55   13.1   13.1   13.1    97   12.6   0.0     S   0.00   1.0     S   13.1   13.3   13.3  1012.5  0.00   0.0   0.018   0.000   23.6    54   13.8   23.8   9.86 1.1707    117    1    100.0    5 
22/11/14  11:00   13.1   13.2   13.1    97   12.6   0.0   ---   0.00   0.0   ---   13.1   13.3   13.3  1012.4  0.00   0.0   0.018   0.000   23.6    54   13.8   23.8   9.86 1.1706    116    1    100.0    5 
22/11/14  11:05   13.2   13.2   13.2    97   12.7   0.0   ---   0.00   0.0   ---   13.2   13.3   13.3  1012.5  0.00   0.0   0.018   0.000   23.6    54   13.8   23.8   9.86 1.1707    114    1    100.0    5 
22/11/14  11:10   13.2   13.2   13.2    97   12.8   0.0     S   0.00   1.0     S   13.2   13.4   13.4  1012.6  0.00   0.0   0.018   0.000   23.6    54   13.8   23.8   9.86 1.1708    117    1    100.0    5 
22/11/14  11:15   13.3   13.3   13.2    97   12.8   1.0     S   0.08   2.0     S   13.3   13.4   13.4  1012.6  0.00   0.0   0.018   0.000   23.6    54   13.8   23.8   9.86 1.1708    116    1    100.0    5 
22/11/14  11:20   13.3   13.3   13.3    97   12.9   1.0   SSE   0.08   2.0     S   13.3   13.5   13.5  1012.6  0.00   0.0   0.017   0.000   23.6    53   13.5   23.7   9.67 1.1712    117    1    100.0    5 
22/11/14  11:25   13.3   13.3   13.3    97   12.9   2.0   SSE   0.17   4.0   SSE   13.3   13.5   13.5  1012.7  0.00   0.0   0.017   0.000   23.6    53   13.5   23.7   9.67 1.1713    117    1    100.0    5 
22/11/14  11:30   13.3   13.3   13.3    96   12.7   3.0   ESE   0.25   5.0   ESE   13.3   13.4   13.4  1012.7  0.00   0.0   0.017   0.000   23.6    53   13.5   23.7   9.67 1.1714    117    1    100.0    5 
22/11/14  11:35   13.4   13.4   13.3    97   12.9   4.0   SSE   0.33   5.0   SSE   13.3   13.6   13.4  1012.7  0.00   0.0   0.017   0.000   23.6    53   13.5   23.7   9.67 1.1713    117    1    100.0    5 
22/11/14  11:40   13.4   13.4   13.4    97   13.0   4.0   SSE   0.33   6.0    SE   13.3   13.6   13.5  1012.6  0.00   0.0   0.017   0.000   23.6    53   13.5   23.7   9.67 1.1712    117    1    100.0    5 
22/11/14  11:45   13.4   13.4   13.4    97   13.0   4.0   SSE   0.33   5.0    SE   13.3   13.6   13.5  1012.7  0.00   0.0   0.017   0.000   23.6    53   13.5   23.7   9.67 1.1713    117    1    100.0    5 
22/11/14  11:50   13.4   13.5   13.4    97   13.0   3.0   SSE   0.25   4.0   SSE   13.4   13.6   13.6  1012.5  0.00   0.0   0.017   0.000   23.6    53   13.5   23.7   9.67 1.1711    116    1    100.0    5 
22/11/14  11:55   13.4   13.4   13.4    97   13.0   3.0    SE   0.25   5.0    SE   13.4   13.6   13.6  1012.6  0.00   0.0   0.017   0.000   23.6    53   13.5   23.7   9.67 1.1712    116    1    100.0    5 
22/11/14  12:00   13.4   13.4   13.4    97   13.0   3.0    SE   0.25   4.0   SSE   13.4   13.6   13.6  1012.5  0.00   0.0   0.017   0.000   23.6    53   13.5   23.7   9.67 1.1711    117    1    100.0    5 
22/11/14  12:05   13.4   13.4   13.4    96   12.8   3.0   ESE   0.25   4.0    SE   13.4   13.5   13.5  1012.5  0.00   0.0   0.017   0.000   23.6    54   13.8   23.8   9.86 1.1707    117    1    100.0    5 
22/11/14  12:10   13.4   13.4   13.3    97   12.9   2.0   ESE   0.17   3.0   ESE   13.4   13.6   13.6  1012.4  0.00   0.0   0.017   0.000   23.6    54   13.8   23.8   9.86 1.1706    117    1    100.0    5 
22/11/14  12:15   13.3   13.4   13.3    97   12.9   1.0   ESE   0.08   2.0     E   13.3   13.5   13.5  1012.4  0.00   0.0   0.017   0.000   23.6    54   13.8   23.8   9.86 1.1706    117    1    100.0    5 
22/11/14  12:20   13.4   13.4   13.3    97   12.9   2.0   ESE   0.17   4.0   ESE   13.4   13.6   13.6  1012.4  0.00   0.0   0.017   0.000   23.7    54   13.8   23.8   9.86 1.1703    117    1    100.0    5 
22/11/14  12:25   13.4   13.4   13.4    97   13.0   4.0    SE   0.33   5.0    SE   13.3   13.6   13.5  1012.4  0.00   0.0   0.017   0.000   23.7    54   13.8   23.8   9.86 1.1704    116    1    100.0    5 
22/11/14  12:30   13.4   13.4   13.4    97   13.0   3.0   ESE   0.25   5.0    SE   13.4   13.6   13.6  1012.4  0.00   0.0   0.017   0.000   23.7    54   13.8   23.8   9.86 1.1704    117    1    100.0    5 
22/11/14  12:35   13.4   13.4   13.4    97   13.0   4.0   ESE   0.33   7.0   ESE   13.3   13.6   13.5  1012.4  0.00   0.0   0.017   0.000   23.7    54   13.8   23.8   9.86 1.1704    117    1    100.0    5 
22/11/14  12:40   13.5   13.5   13.4    97   13.0   4.0     E   0.33   6.0     E   13.4   13.7   13.6  1012.4  0.00   0.0   0.017   0.000   23.7    53   13.5   23.8   9.67 1.1706    117    1    100.0    5 
22/11/14  12:45   13.6   13.6   13.5    97   13.1   4.0   ESE   0.33   7.0   ESE   13.5   13.7   13.7  1012.4  0.00   0.0   0.017   0.000   23.7    53   13.5   23.8   9.67 1.1707    117    1    100.0    5 
22/11/14  12:50   13.6   13.6   13.6    97   13.1   4.0   ESE   0.33   5.0     E   13.5   13.7   13.7  1012.5  0.00   0.0   0.017   0.000   23.7    53   13.5   23.8   9.67 1.1708    115    1    100.0    5 
22/11/14  12:55   13.6   13.6   13.6    97   13.1   3.0   ESE   0.25   4.0   ESE   13.6   13.7   13.7  1012.4  0.00   0.0   0.017   0.000   23.7    53   13.5   23.8   9.67 1.1707    115    1    100.0    5 
22/11/14  13:00   13.6   13.6   13.6    97   13.1   3.0   ESE   0.25   4.0   ESE   13.6   13.7   13.7  1012.4  0.00   0.0   0.017   0.000   23.7    53   13.5   23.8   9.67 1.1706    115    1    100.0    5 
22/11/14  13:05   13.5   13.6   13.5    97   13.0   3.0    SE   0.25   4.0   ESE   13.5   13.7   13.7  1012.4  0.00   0.0   0.017   0.000   23.7    53   13.5   23.8   9.67 1.1707    117    1    100.0    5 
22/11/14  13:10   13.5   13.5   13.5    97   13.0   4.0    SE   0.33   5.0    SE   13.4   13.7   13.6  1012.3  0.00   0.0   0.017   0.000   23.7    53   13.5   23.8   9.67 1.1706    117    1    100.0    5 
22/11/14  13:15   13.5   13.5   13.5    97   13.0   4.0    SE   0.33   5.0    SE   13.4   13.7   13.6  1012.3  0.00   0.0   0.017   0.000   23.7    53   13.5   23.8   9.67 1.1706    117    1    100.0    5 
22/11/14  13:20   13.6   13.6   13.5    97   13.1   4.0    SE   0.33   5.0    SE   13.5   13.7   13.7  1012.2  0.00   0.0   0.017   0.000   23.7    53   13.5   23.8   9.67 1.1705    116    1    100.0    5 
22/11/14  13:25   13.6   13.6   13.5    97   13.1   4.0    SE   0.33   5.0    SE   13.5   13.7   13.7  1012.4  0.00   0.0   0.017   0.000   23.7    53   13.5   23.8   9.67 1.1706    118    1    100.0    5 
22/11/14  13:30   13.5   13.6   13.5    97   13.0   5.0    SE   0.42   6.0    SE   13.1   13.7   13.3  1012.4  0.00   0.0   0.017   0.000   23.7    53   13.5   23.8   9.67 1.1707    116    1    100.0    5 
22/11/14  13:35   13.4   13.5   13.4    97   13.0   5.0   SSE   0.42   7.0   SSE   13.1   13.6   13.2  1012.5  0.00   0.0   0.017   0.000   23.7    53   13.5   23.8   9.67 1.1708    117    1    100.0    5 
22/11/14  13:40   13.4   13.4   13.4    97   13.0   5.0   SSE   0.42   7.0   SSE   13.1   13.6   13.2  1012.4  0.00   0.0   0.017   0.000   23.7    53   13.5   23.8   9.67 1.1707    117    1    100.0    5 
22/11/14  13:45   13.4   13.4   13.4    97   13.0   5.0   SSE   0.42   6.0   SSE   13.1   13.6   13.2  1012.4  0.00   0.0   0.017   0.000   23.7    53   13.5   23.8   9.67 1.1706    114    1    100.0    5 
22/11/14  13:50   13.4   13.4   13.4    97   12.9   5.0   SSE   0.42   6.0   SSE   13.0   13.6   13.2  1012.4  0.00   0.0   0.017   0.000   23.7    53   13.5   23.8   9.67 1.1707    117    1    100.0    5 
22/11/14  13:55   13.3   13.4   13.3    97   12.9   6.0     S   0.50   7.0     S   12.7   13.5   12.8  1012.4  0.00   0.0   0.017   0.000   23.7    53   13.5   23.8   9.67 1.1707    115    1    100.0    5 
22/11/14  14:00   13.3   13.4   13.3    97   12.9   6.0     S   0.50   8.0     S   12.7   13.5   12.8  1012.4  0.00   0.0   0.017   0.000   23.7    53   13.5   23.8   9.67 1.1707    116    1    100.0    5 
22/11/14  14:05   13.3   13.3   13.3    97   12.9   6.0     S   0.50   7.0     S   12.7   13.5   12.8  1012.5  0.00   0.0   0.017   0.000   23.7    53   13.5   23.8   9.67 1.1708    114    1    100.0    5 
22/11/14  14:10   13.3   13.3   13.3    97   12.9   6.0     S   0.50   8.0     S   12.7   13.5   12.8  1012.4  0.00   0.0   0.017   0.000   23.7    53   13.5   23.8   9.67 1.1707    116    1    100.0    5 
22/11/14  14:15   13.3   13.3   13.3    97   12.9   5.0     S   0.42   7.0     S   12.9   13.5   13.1  1012.4  0.00   0.0   0.017   0.000   23.7    53   13.5   23.8   9.67 1.1707    117    1    100.0    5 
22/11/14  14:20   13.3   13.4   13.3    97   12.9   5.0     S   0.42   6.0     S   12.9   13.5   13.1  1012.4  0.00   0.0   0.017   0.000   23.7    53   13.5   23.8   9.67 1.1706    116    1    100.0    5 
22/11/14  14:25   13.3   13.3   13.3    97   12.9   4.0     S   0.33   6.0     S   13.2   13.5   13.4  1012.4  0.00   0.0   0.017   0.000   23.6    53   13.5   23.7   9.67 1.1710    118    1    100.0    5 
22/11/14  14:30   13.3   13.3   13.3    97   12.9   3.0   SSW   0.25   6.0   SSW   13.3   13.5   13.5  1012.5  0.00   0.0   0.017   0.000   23.6    53   13.5   23.7   9.67 1.1710    116    1    100.0    5 
22/11/14  14:35   13.3   13.3   13.3    97   12.9   4.0   SSW   0.33   6.0     S   13.2   13.5   13.4  1012.5  0.00   0.0   0.017   0.000   23.6    53   13.5   23.7   9.67 1.1711    117    1    100.0    5 
22/11/14  14:40   13.3   13.3   13.3    97   12.9   4.0   SSW   0.33   6.0   SSW   13.2   13.5   13.4  1012.4  0.00   0.0   0.017   0.000   23.6    53   13.5   23.7   9.67 1.1710    117    1    100.0    5 
22/11/14  14:45   13.3   13.3   13.3    97   12.9   4.0   SSW   0.33   6.0   SSW   13.2   13.5   13.4  1012.5  0.00   0.0   0.017   0.000   23.6    53   13.5   23.7   9.67 1.1711    116    1    100.0    5 
22/11/14  14:50   13.3   13.3   13.3    97   12.8   4.0    SW   0.33   6.0    SW   13.2   13.4   13.3  1012.5  0.00   0.0   0.018   0.000   23.6    53   13.5   23.7   9.67 1.1711    117    1    100.0    5 
22/11/14  14:55   13.3   13.3   13.3    97   12.8   3.0    SW   0.25   5.0    SW   13.3   13.4   13.4  1012.4  0.00   0.0   0.018   0.000   23.6    53   13.5   23.7   9.67 1.1710    116    1    100.0    5 
22/11/14  15:00   13.3   13.3   13.3    97   12.8   3.0    SW   0.25   4.0    SW   13.3   13.4   13.4  1012.5  0.00   0.0   0.018   0.000   23.6    53   13.5   23.7   9.67 1.1710    117    1    100.0    5 
22/11/14  15:05   13.3   13.3   13.3    97   12.8   3.0    SW   0.25   4.0    SW   13.3   13.4   13.4  1012.5  0.00   0.0   0.018   0.000   23.6    53   13.5   23.7   9.67 1.1711    116    1    100.0    5 
22/11/14  15:10   13.2   13.3   13.2    97   12.8   3.0    SW   0.25   4.0    SW   13.2   13.4   13.4  1012.7  0.00   0.0   0.018   0.000   23.6    53   13.4   23.6   9.67 1.1716    116    1    100.0    5 
22/11/14  15:15   13.2   13.3   13.2    97   12.8   4.0    SW   0.33   5.0    SW   13.1   13.4   13.3  1012.8  0.00   0.0   0.018   0.000   23.6    53   13.5   23.7   9.67 1.1714    117    1    100.0    5 
22/11/14  15:20   13.2   13.2   13.2    97   12.8   3.0    SW   0.25   4.0    SW   13.2   13.4   13.4  1012.6  0.00   0.0   0.018   0.000   23.6    53   13.5   23.7   9.67 1.1712    114    1    100.0    5 
22/11/14  15:25   13.2   13.2   13.2    97   12.7   1.0    SW   0.08   2.0    SW   13.2   13.3   13.3  1012.4  0.00   0.0   0.018   0.000   23.6    53   13.5   23.7   9.67 1.1710    116    1    100.0    5 
22/11/14  15:30   13.2   13.2   13.2    97   12.7   2.0    SW   0.17   4.0    SW   13.2   13.3   13.3  1012.6  0.00   0.0   0.018   0.000   23.6    53   13.5   23.7   9.67 1.1712    118    1    100.0    5 
22/11/14  15:35   13.2   13.2   13.2    97   12.7   3.0    SW   0.25   4.0    SW   13.2   13.3   13.3  1012.7  0.00   0.0   0.018   0.000   23.6    53   13.5   23.7   9.67 1.1713    116    1    100.0    5 
22/11/14  15:40   13.1   13.2   13.1    97   12.6   3.0   SSW   0.25   5.0   SSW   13.1   13.3   13.3  1012.7  0.00   0.0   0.018   0.000   23.7    53   13.5   23.8   9.67 1.1711    116    1    100.0    5 
22/11/14  15:45   13.1   13.1   13.1    97   12.6   2.0   SSW   0.17   4.0   SSW   13.1   13.3   13.3  1012.7  0.00   0.0   0.018   0.000   23.7    53   13.5   23.8   9.67 1.1711    116    1    100.0    5 
22/11/14  15:50   13.1   13.1   13.1    97   12.6   1.0   SSW   0.08   3.0   SSW   13.1   13.3   13.3  1012.7  0.00   0.0   0.018   0.000   23.7    53   13.5   23.8   9.67 1.1710    117    1    100.0    5 
22/11/14  15:55   13.1   13.1   13.1    97   12.6   1.0   SSW   0.08   2.0   SSW   13.1   13.3   13.3  1012.7  0.00   0.0   0.018   0.000   23.6    53   13.5   23.7   9.67 1.1713    117    1    100.0    5 
22/11/14  16:00   13.1   13.1   13.1    97   12.6   0.0   SSW   0.00   1.0   SSW   13.1   13.3   13.3  1012.8  0.00   0.0   0.018   0.000   23.6    53   13.5   23.7   9.67 1.1714    117    1    100.0    5 
22/11/14  16:05   13.1   13.1   13.1    97   12.6   0.0   SSW   0.00   1.0   SSW   13.1   13.3   13.3  1012.8  0.00   0.0   0.018   0.000   23.6    53   13.5   23.7   9.67 1.1714    117    1    100.0    5 
22/11/14  16:10   13.1   13.1   13.1    97   12.6   0.0   SSW   0.00   1.0   SSW   13.1   13.3   13.3  1012.8  0.00   0.0   0.018   0.000   23.6    53   13.5   23.7   9.67 1.1715    115    1    100.0    5 
22/11/14  16:15   13.1   13.2   13.1    97   12.6   0.0   SSW   0.00   1.0   SSW   13.1   13.3   13.3  1012.9  0.00   0.0   0.018   0.000   23.6    53   13.5   23.7   9.67 1.1716    117    1    100.0    5 
22/11/14  16:20   13.2   13.2   13.1    97   12.7   0.0   SSW   0.00   1.0   SSW   13.2   13.3   13.3  1013.0  0.00   0.0   0.018   0.000   23.6    53   13.5   23.7   9.67 1.1716    117    1    100.0    5 
22/11/14  16:25   13.2   13.2   13.1    97   12.7   1.0   SSW   0.08   3.0   SSW   13.2   13.3   13.3  1013.0  0.00   0.0   0.018   0.000   23.6    53   13.5   23.7   9.67 1.1717    114    1    100.0    5 
22/11/14  16:30   13.1   13.2   13.1    97   12.6   1.0   SSW   0.08   2.0   SSW   13.1   13.3   13.3  1013.0  0.00   0.0   0.018   0.000   23.6    53   13.4   23.6   9.67 1.1720    117    1    100.0    5 
22/11/14  16:35   13.1   13.1   13.1    97   12.6   1.0   SSW   0.08   3.0   SSW   13.1   13.3   13.3  1013.0  0.00   0.0   0.018   0.000   23.6    53   13.4   23.6   9.67 1.1719    114    1    100.0    5 
22/11/14  16:40   13.1   13.1   13.1    97   12.6   1.0   SSW   0.08   2.0   SSW   13.1   13.3   13.3  1013.0  0.00   0.0   0.018   0.000   23.6    53   13.4   23.6   9.67 1.1720    115    1    100.0    5 
22/11/14  16:45   13.1   13.2   13.1    97   12.6   2.0   SSW   0.17   2.0   SSW   13.1   13.3   13.3  1013.0  0.00   0.0   0.018   0.000   23.6    53   13.4   23.6   9.67 1.1720    116    1    100.0    5 
22/11/14  16:50   13.1   13.2   13.1    97   12.6   1.0   SSW   0.08   2.0   SSW   13.1   13.3   13.3  1013.1  0.00   0.0   0.018   0.000   23.6    53   13.4   23.6   9.67 1.1720    117    1    100.0    5 
22/11/14  16:55   13.1   13.2   13.1    97   12.6   0.0   ---   0.00   0.0   ---   13.1   13.3   13.3  1013.2  0.00   0.0   0.018   0.000   23.5    53   13.4   23.6   9.68 1.1725    117    1    100.0    5 
22/11/14  17:00   13.1   13.2   13.1    97   12.6   0.0   ---   0.00   0.0   ---   13.1   13.3   13.3  1013.3  0.00   0.0   0.018   0.000   23.6    53   13.4   23.6   9.67 1.1723    116    1    100.0    5 
22/11/14  17:05   13.1   13.1   13.1    97   12.6   0.0   ---   0.00   0.0   ---   13.1   13.3   13.3  1013.3  0.00   0.0   0.018   0.000   23.5    53   13.4   23.6   9.68 1.1726    117    1    100.0    5 
22/11/14  17:10   13.2   13.2   13.1    97   12.7   0.0   SSW   0.00   1.0   SSW   13.2   13.3   13.3  1013.3  0.00   0.0   0.018   0.000   23.6    53   13.4   23.6   9.67 1.1723    115    1    100.0    5 
22/11/14  17:15   13.2   13.2   13.2    97   12.8   0.0   SSW   0.00   2.0   SSW   13.2   13.4   13.4  1013.3  0.00   0.0   0.018   0.000   23.6    53   13.4   23.6   9.67 1.1724    117    1    100.0    5 
22/11/14  17:20   13.3   13.3   13.2    97   12.8   2.0    SW   0.17   5.0    SW   13.3   13.4   13.4  1013.4  0.00   0.0   0.018   0.000   23.6    53   13.4   23.6   9.67 1.1724    117    1    100.0    5 
22/11/14  17:25   13.3   13.3   13.3    97   12.9   1.0    SW   0.08   3.0    SW   13.3   13.5   13.5  1013.5  0.00   0.0   0.017   0.000   23.6    53   13.4   23.6   9.67 1.1725    116    1    100.0    5 
22/11/14  17:30   13.3   13.3   13.3    97   12.9   1.0    SW   0.08   3.0    SW   13.3   13.5   13.5  1013.5  0.00   0.0   0.017   0.000   23.6    54   13.7   23.7   9.86 1.1722    116    1    100.0    5 
22/11/14  17:35   13.3   13.3   13.3    97   12.9   2.0    SW   0.17   4.0    SW   13.3   13.5   13.5  1013.5  0.00   0.0   0.017   0.000   23.6    54   13.8   23.8   9.86 1.1719    116    1    100.0    5 
22/11/14  17:40   13.3   13.3   13.3    97   12.8   2.0   SSW   0.17   5.0   SSW   13.3   13.4   13.4  1013.5  0.00   0.0   0.018   0.000   23.6    54   13.8   23.8   9.86 1.1719    114    1    100.0    5 
22/11/14  17:45   13.3   13.3   13.3    97   12.8   1.0   SSW   0.08   4.0   SSW   13.3   13.4   13.4  1013.5  0.00   0.0   0.018   0.000   23.6    54   13.8   23.8   9.86 1.1719    117    1    100.0    5 
22/11/14  17:50   13.2   13.3   13.2    97   12.8   0.0   SSW   0.00   1.0   SSW   13.2   13.4   13.4  1013.4  0.00   0.0   0.018   0.000   23.7    55   14.1   23.9  10.06 1.1712    117    1    100.0    5 
22/11/14  17:55   13.3   13.3   13.2    97   12.8   1.0   SSW   0.08   3.0   SSW   13.3   13.4   13.4  1013.4  0.00   0.0   0.018   0.000   23.7    55   14.1   23.9  10.06 1.1712    116    1    100.0    5 
22/11/14  18:00   13.3   13.3   13.3    97   12.9   1.0   SSW   0.08   3.0   SSW   13.3   13.5   13.5  1013.4  0.00   0.0   0.017   0.000   23.7    55   14.1   23.9  10.06 1.1709    117    1    100.0    5 
22/11/14  18:05   13.3   13.3   13.3    97   12.9   0.0   SSW   0.00   1.0   SSW   13.3   13.5   13.5  1013.3  0.00   0.0   0.017   0.000   23.8    55   14.2   24.0  10.05 1.1705    116    1    100.0    5 
22/11/14  18:10   13.3   13.4   13.3    97   12.9   0.0   SSW   0.00   1.0   SSW   13.3   13.5   13.5  1013.4  0.00   0.0   0.017   0.000   23.8    55   14.2   24.1  10.05 1.1703    116    1    100.0    5 
22/11/14  18:15   13.3   13.4   13.3    97   12.9   0.0   SSW   0.00   1.0   SSW   13.3   13.5   13.5  1013.5  0.00   0.0   0.017   0.000   23.8    55   14.2   24.1  10.05 1.1704    117    1    100.0    5 
22/11/14  18:20   13.3   13.3   13.3    97   12.9   1.0   SSW   0.08   3.0     S   13.3   13.5   13.5  1013.4  0.00   0.0   0.017   0.000   23.9    55   14.3   24.2  10.05 1.1701    117    1    100.0    5 
22/11/14  18:25   13.3   13.3   13.3    97   12.8   2.0     S   0.17   3.0     S   13.3   13.4   13.4  1013.5  0.00   0.0   0.018   0.000   23.9    55   14.3   24.2  10.05 1.1699    115    1    100.0    5 
22/11/14  18:30   13.2   13.3   13.2    97   12.8   2.0   SSE   0.17   3.0   SSE   13.2   13.4   13.4  1013.5  0.00   0.0   0.018   0.000   23.9    55   14.3   24.2  10.05 1.1699    116    1    100.0    5 
22/11/14  18:35   13.2   13.2   13.2    97   12.7   1.0   SSE   0.08   3.0   SSE   13.2   13.3   13.3  1013.5  0.00   0.0   0.018   0.000   24.0    55   14.4   24.3  10.04 1.1696    117    1    100.0    5 
22/11/14  18:40   13.1   13.2   13.1    97   12.6   1.0   SSE   0.08   3.0   SSE   13.1   13.3   13.3  1013.5  0.00   0.0   0.018   0.000   24.1    55   14.5   24.3  10.04 1.1694    110    1     96.5    5 
22/11/14  18:45   13.1   13.1   13.1    97   12.6   2.0   SSE   0.17   3.0   SSE   13.1   13.3   13.3  1013.5  0.00   0.0   0.018   0.000   24.1    55   14.5   24.3  10.04 1.1694    115    1    100.0    5 
22/11/14  18:50   13.1   13.1   13.1    97   12.6   2.0   SSE   0.17   3.0   SSE   13.1   13.2   13.2  1013.5  0.00   0.0   0.018   0.000   24.1    55   14.5   24.3  10.04 1.1693    116    1    100.0    5 
22/11/14  18:55   13.1   13.1   13.1    97   12.6   1.0   SSE   0.08   2.0   SSE   13.1   13.2   13.2  1013.5  0.00   0.0   0.018   0.000   24.1    55   14.5   24.3  10.03 1.1691    116    1    100.0    5 
22/11/14  19:00   13.1   13.1   13.1    97   12.6   1.0   SSE   0.08   2.0   SSE   13.1   13.2   13.2  1013.5  0.00   0.0   0.018   0.000   24.1    54   14.2   24.3   9.84 1.1694    117    1    100.0    5 
22/11/14  19:05   13.1   13.1   13.1    97   12.6   0.0   SSE   0.00   1.0   SSE   13.1   13.2   13.2  1013.5  0.00   0.0   0.018   0.000   24.1    54   14.2   24.3   9.84 1.1694    114    1    100.0    5 
22/11/14  19:10   13.1   13.1   13.1    97   12.6   0.0   SSE   0.00   1.0   SSE   13.1   13.2   13.2  1013.6  0.00   0.0   0.018   0.000   24.1    54   14.2   24.3   9.84 1.1695    116    1    100.0    5 
22/11/14  19:15   13.1   13.1   13.1    97   12.6   0.0   SSE   0.00   1.0   SSE   13.1   13.3   13.3  1013.6  0.00   0.0   0.018   0.000   24.1    54   14.2   24.3   9.84 1.1695    115    1    100.0    5 
22/11/14  19:20   13.1   13.1   13.1    97   12.6   0.0   SSE   0.00   1.0   SSE   13.1   13.3   13.3  1013.7  0.00   0.0   0.018   0.000   24.1    54   14.2   24.3   9.84 1.1696    116    1    100.0    5 
22/11/14  19:25   13.2   13.2   13.1    97   12.7   1.0   SSE   0.08   3.0   SSE   13.2   13.3   13.3  1013.7  0.00   0.0   0.018   0.000   24.1    54   14.2   24.3   9.84 1.1696    116    1    100.0    5 
22/11/14  19:30   13.2   13.2   13.2    97   12.7   1.0   SSE   0.08   2.0   SSE   13.2   13.3   13.3  1013.7  0.00   0.0   0.018   0.000   24.1    54   14.2   24.3   9.84 1.1696    116    1    100.0    5 
22/11/14  19:35   13.2   13.2   13.2    97   12.7   0.0   SSE   0.00   1.0   SSE   13.2   13.3   13.3  1013.8  0.00   0.0   0.018   0.000   24.2    54   14.3   24.3   9.84 1.1694    116    1    100.0    5 
22/11/14  19:40   13.2   13.2   13.2    97   12.8   0.0   ---   0.00   0.0   ---   13.2   13.4   13.4  1013.7  0.00   0.0   0.018   0.000   24.2    54   14.3   24.3   9.84 1.1694    117    1    100.0    5 
22/11/14  19:45   13.2   13.2   13.2    97   12.8   0.0   ---   0.00   0.0   ---   13.2   13.4   13.4  1013.8  0.00   0.0   0.018   0.000   24.2    55   14.6   24.4  10.03 1.1691    117    1    100.0    5 
22/11/14  19:50   13.2   13.2   13.2    97   12.8   0.0   SSE   0.00   1.0   SSE   13.2   13.4   13.4  1013.9  0.00   0.0   0.018   0.000   24.2    55   14.6   24.4  10.03 1.1692    117    1    100.0    5 
22/11/14  19:55   13.3   13.3   13.2    97   12.8   1.0   SSW   0.08   5.0   SSW   13.3   13.4   13.4  1013.9  0.00   0.0   0.018   0.000   24.2    55   14.6   24.4  10.03 1.1692    117    1    100.0    5 
22/11/14  20:00   13.3   13.3   13.3    97   12.9   1.0     S   0.08   3.0   SSW   13.3   13.5   13.5  1013.9  0.00   0.0   0.017   0.000   24.2    55   14.6   24.4  10.03 1.1689    117    1    100.0    5 
22/11/14  20:05   13.3   13.3   13.3    97   12.9   0.0     S   0.00   1.0     S   13.3   13.5   13.5  1013.8  0.00   0.0   0.017   0.000   24.2    56   14.9   24.5  10.23 1.1684    116    1    100.0    5 
22/11/14  20:10   13.3   13.3   13.3    97   12.8   0.0     S   0.00   1.0     S   13.3   13.4   13.4  1013.8  0.00   0.0   0.018   0.000   24.2    56   14.9   24.5  10.23 1.1684    117    1    100.0    5 
22/11/14  20:15   13.3   13.3   13.3    97   12.8   0.0     S   0.00   1.0     S   13.3   13.4   13.4  1013.9  0.00   0.0   0.018   0.000   24.2    56   14.9   24.5  10.23 1.1686    117    1    100.0    5 
22/11/14  20:20   13.3   13.3   13.3    97   12.9   0.0   ---   0.00   0.0   ---   13.3   13.5   13.5  1013.9  0.00   0.0   0.017   0.000   24.3    56   14.9   24.5  10.22 1.1683    116    1    100.0    5 
22/11/14  20:25   13.3   13.3   13.3    97   12.9   0.0     S   0.00   2.0     S   13.3   13.5   13.5  1014.0  0.00   0.0   0.017   0.000   24.3    56   14.9   24.5  10.22 1.1684    116    1    100.0    5 
22/11/14  20:30   13.3   13.3   13.3    97   12.8   2.0     S   0.17   3.0     S   13.3   13.4   13.4  1014.1  0.00   0.0   0.018   0.000   24.3    56   15.0   24.6  10.22 1.1682    117    1    100.0    5 
22/11/14  20:35   13.2   13.3   13.2    97   12.8   3.0     S   0.25   4.0     S   13.2   13.4   13.4  1014.2  0.00   0.0   0.018   0.000   24.3    56   15.0   24.6  10.22 1.1683    115    1    100.0    5 
22/11/14  20:40   13.1   13.2   13.1    97   12.6   2.0     S   0.17   4.0     S   13.1   13.3   13.3  1014.2  0.00   0.0   0.018   0.000   24.3    56   15.0   24.6  10.22 1.1684    117    1    100.0    5 
22/11/14  20:45   13.1   13.1   13.1    97   12.6   3.0     S   0.25   4.0     S   13.1   13.2   13.2  1014.2  0.00   0.0   0.018   0.000   24.4    56   15.0   24.6  10.21 1.1681    116    1    100.0    5 
22/11/14  20:50   13.0   13.1   13.0    97   12.5   2.0     S   0.17   3.0     S   13.0   13.2   13.2  1014.1  0.00   0.0   0.019   0.000   24.4    56   15.0   24.6  10.21 1.1679    116    1    100.0    5 
22/11/14  20:55   13.0   13.0   13.0    97   12.5   2.0     S   0.17   3.0     S   13.0   13.2   13.2  1014.1  0.00   0.0   0.019   0.000   24.4    56   15.0   24.6  10.21 1.1680    116    1    100.0    5 
22/11/14  21:00   13.0   13.0   13.0    97   12.5   2.0     S   0.17   3.0     S   13.0   13.2   13.2  1014.0  0.00   0.0   0.019   0.000   24.4    56   15.0   24.6  10.21 1.1679    117    1    100.0    5 
22/11/14  21:05   13.0   13.0   13.0    97   12.5   3.0     S   0.25   4.0     S   13.0   13.2   13.2  1014.0  0.00   0.0   0.019   0.000   24.4    56   15.1   24.7  10.21 1.1676    117    1    100.0    5 
22/11/14  21:10   13.0   13.0   13.0    97   12.5   2.0     S   0.17   3.0     S   13.0   13.2   13.2  1014.0  0.00   0.0   0.019   0.000   24.4    56   15.1   24.7  10.21 1.1675    116    1    100.0    5 
22/11/14  21:15   13.0   13.0   13.0    97   12.5   1.0     S   0.08   2.0     S   13.0   13.2   13.2  1014.0  0.00   0.0   0.019   0.000   24.5    55   14.9   24.7  10.01 1.1676    117    1    100.0    5 
22/11/14  21:20   13.0   13.0   12.9    97   12.5   1.0     S   0.08   2.0     S   13.0   13.2   13.2  1014.0  0.00   0.0   0.019   0.000   24.5    55   14.9   24.7  10.01 1.1677    116    1    100.0    5 
22/11/14  21:25   13.0   13.0   12.9    97   12.5   1.0     S   0.08   3.0     S   13.0   13.2   13.2  1014.0  0.00   0.0   0.019   0.000   24.5    55   14.9   24.7  10.01 1.1677    116    1    100.0    5 
22/11/14  21:30   13.0   13.0   13.0    97   12.5   2.0     S   0.17   3.0     S   13.0   13.2   13.2  1014.0  0.00   0.0   0.019   0.000   24.5    55   14.9   24.7  10.01 1.1677    117    1    100.0    5 
22/11/14  21:35   12.9   13.0   12.9    97   12.5   2.0     S   0.17   2.0     S   12.9   13.1   13.1  1014.1  0.00   0.0   0.019   0.000   24.5    55   14.9   24.7  10.01 1.1677    117    1    100.0    5 
22/11/14  21:40   12.9   13.0   12.9    97   12.5   1.0     S   0.08   3.0     S   12.9   13.1   13.1  1014.2  0.00   0.0   0.019   0.000   24.5    55   14.9   24.7  10.01 1.1678    117    1    100.0    5 
22/11/14  21:45   12.9   12.9   12.9    97   12.5   1.0     S   0.08   2.0     S   12.9   13.1   13.1  1014.2  0.00   0.0   0.019   0.000   24.5    55   14.9   24.7  10.01 1.1678    115    1    100.0    5 
22/11/14  21:50   12.9   12.9   12.9    97   12.5   2.0     S   0.17   3.0     S   12.9   13.1   13.1  1014.2  0.00   0.0   0.019   0.000   24.5    55   14.9   24.7  10.01 1.1678    117    1    100.0    5 
22/11/14  21:55   12.9   12.9   12.9    97   12.5   3.0     S   0.25   4.0     S   12.9   13.1   13.1  1014.2  0.00   0.0   0.019   0.000   24.5    55   14.9   24.7  10.01 1.1678    116    1    100.0    5 
22/11/14  22:00   13.0   13.0   12.9    97   12.5   4.0   SSE   0.33   5.0   SSE   12.8   13.2   13.0  1014.1  0.00   0.0   0.019   0.000   24.5    55   14.9   24.7  10.01 1.1677    116    1    100.0    5 
22/11/14  22:05   13.0   13.0   12.9    97   12.5   3.0   SSE   0.25   4.0   SSE   13.0   13.2   13.2  1014.1  0.00   0.0   0.019   0.000   24.5    55   14.9   24.7  10.01 1.1677    116    1    100.0    5 
22/11/14  22:10   13.0   13.0   13.0    97   12.5   2.0   SSE   0.17   4.0   SSE   13.0   13.2   13.2  1014.1  0.00   0.0   0.019   0.000   24.5    55   14.9   24.7  10.01 1.1677    116    1    100.0    5 
22/11/14  22:15   13.0   13.0   13.0    97   12.5   3.0   SSE   0.25   4.0   SSE   13.0   13.2   13.2  1014.2  0.00   0.0   0.019   0.000   24.5    54   14.6   24.6   9.83 1.1682    117    1    100.0    5 
22/11/14  22:20   13.0   13.0   13.0    97   12.5   3.0   SSE   0.25   4.0   SSE   13.0   13.2   13.2  1014.2  0.00   0.0   0.019   0.000   24.5    54   14.6   24.6   9.83 1.1682    115    1    100.0    5 
22/11/14  22:25   13.0   13.0   13.0    97   12.5   3.0   SSE   0.25   4.0   SSE   13.0   13.2   13.2  1014.2  0.00   0.0   0.019   0.000   24.5    54   14.6   24.6   9.83 1.1682    117    1    100.0    5 
22/11/14  22:30   13.0   13.0   13.0    97   12.5   3.0   SSE   0.25   4.0   SSE   13.0   13.2   13.2  1014.1  0.00   0.0   0.019   0.000   24.5    54   14.6   24.6   9.83 1.1681    116    1    100.0    5 
22/11/14  22:35   13.0   13.0   13.0    97   12.5   3.0     S   0.25   4.0     S   13.0   13.2   13.2  1014.2  0.00   0.0   0.019   0.000   24.5    54   14.6   24.6   9.83 1.1682    117    1    100.0    5 
22/11/14  22:40   13.0   13.0   13.0    97   12.5   2.0     S   0.17   3.0     S   13.0   13.2   13.2  1014.2  0.00   0.0   0.019   0.000   24.5    54   14.6   24.6   9.83 1.1683    117    1    100.0    5 
22/11/14  22:45   13.0   13.0   13.0    97   12.5   2.0     S   0.17   3.0     S   13.0   13.2   13.2  1014.2  0.00   0.0   0.019   0.000   24.5    54   14.6   24.6   9.83 1.1682    115    1    100.0    5 
22/11/14  22:50   13.0   13.0   13.0    97   12.5   2.0     S   0.17   3.0     S   13.0   13.2   13.2  1014.2  0.00   0.0   0.019   0.000   24.5    54   14.6   24.6   9.83 1.1682    116    1    100.0    5 
22/11/14  22:55   13.0   13.0   13.0    97   12.5   3.0     S   0.25   4.0     S   13.0   13.2   13.2  1014.1  0.00   0.0   0.019   0.000   24.5    54   14.6   24.6   9.83 1.1681    118    1    100.0    5 
22/11/14  23:00   13.0   13.0   13.0    97   12.5   3.0   SSE   0.25   4.0   SSE   13.0   13.2   13.2  1014.0  0.00   0.0   0.019   0.000   24.5    54   14.6   24.6   9.83 1.1680    116    1    100.0    5 
22/11/14  23:05   13.0   13.1   13.0    97   12.5   2.0   SSE   0.17   3.0   SSE   13.0   13.2   13.2  1014.0  0.00   0.0   0.019   0.000   24.5    54   14.6   24.6   9.83 1.1679    117    1    100.0    5 
22/11/14  23:10   13.0   13.0   13.0    97   12.5   1.0   SSE   0.08   2.0   SSE   13.0   13.2   13.2  1013.9  0.00   0.0   0.019   0.000   24.5    54   14.6   24.6   9.83 1.1679    117    1    100.0    5 
22/11/14  23:15   13.1   13.1   13.0    98   12.7   0.0   ---   0.00   0.0   ---   13.1   13.2   13.2  1014.0  0.00   0.0   0.018   0.000   24.5    54   14.6   24.6   9.83 1.1680    116    1    100.0    5 
22/11/14  23:20   13.1   13.1   13.0    97   12.6   0.0   SSE   0.00   1.0   SSE   13.1   13.2   13.2  1014.2  0.00   0.0   0.018   0.000   24.5    54   14.6   24.6   9.83 1.1682    117    1    100.0    5 
22/11/14  23:25   13.1   13.1   13.1    98   12.8   0.0   SSE   0.00   2.0   SSE   13.1   13.3   13.3  1014.2  0.00   0.0   0.018   0.000   24.5    54   14.6   24.6   9.83 1.1682    116    1    100.0    5 
22/11/14  23:30   13.1   13.2   13.1    98   12.8   0.0   SSE   0.00   2.0   SSE   13.1   13.3   13.3  1014.1  0.00   0.0   0.018   0.000   24.4    54   14.5   24.6   9.83 1.1684    116    1    100.0    5 
22/11/14  23:35   13.2   13.2   13.1    98   12.9   1.0   SSE   0.08   2.0   SSE   13.2   13.3   13.3  1014.2  0.00   0.0   0.018   0.000   24.4    54   14.5   24.6   9.83 1.1685    117    1    100.0    5 
22/11/14  23:40   13.2   13.2   13.2    98   12.9   0.0   SSE   0.00   2.0   SSE   13.2   13.4   13.4  1014.1  0.00   0.0   0.018   0.000   24.4    54   14.5   24.6   9.83 1.1683    116    1    100.0    5 
22/11/14  23:45   13.2   13.2   13.2    98   12.9   0.0   SSE   0.00   1.0   SSE   13.2   13.4   13.4  1014.1  0.00   0.0   0.018   0.000   24.4    54   14.5   24.6   9.83 1.1684    117    1    100.0    5 
22/11/14  23:50   13.3   13.3   13.2    98   13.0   0.0   SSE   0.00   1.0   SSE   13.3   13.4   13.4  1014.1  0.00   0.0   0.018   0.000   24.4    54   14.5   24.6   9.83 1.1684    116    1    100.0    5 
22/11/14  23:55   13.3   13.3   13.2    98   13.0   1.0   SSE   0.08   2.0   SSE   13.3   13.4   13.4  1014.1  0.00   0.0   0.018   0.000   24.4    54   14.5   24.6   9.83 1.1684    117    1    100.0    5 
23/11/14  00:00   13.3   13.3   13.3    98   13.0   2.0   SSE   0.17   3.0   SSE   13.3   13.4   13.4  1014.0  0.00   0.0   0.018   0.000   24.4    54   14.5   24.6   9.83 1.1682    116    1    100.0    5 
23/11/14   0:05   13.3   13.3   13.3    98   13.0   2.0   SSE   0.17   3.0   SSE   13.3   13.4   13.4  1014.0  0.00   0.0   0.018   0.000   24.5    54   14.6   24.6   9.83 1.1679    115    1    100.0    5 
23/11/14   0:10   13.3   13.3   13.3    98   13.0   2.0   SSE   0.17   2.0   SSE   13.3   13.4   13.4  1014.0  0.00   0.0   0.018   0.000   24.5    54   14.6   24.6   9.83 1.1680    117    1    100.0    5 
23/11/14   0:15   13.3   13.3   13.3    98   13.0   1.0   SSE   0.08   2.0   SSE   13.3   13.4   13.4  1014.0  0.00   0.0   0.018   0.000   24.5    54   14.6   24.6   9.83 1.1680    115    1    100.0    5 
23/11/14   0:20   13.3   13.3   13.3    98   13.0   2.0   SSE   0.17   3.0   SSE   13.3   13.4   13.4  1013.9  0.00   0.0   0.018   0.000   24.5    54   14.6   24.6   9.83 1.1679    117    1    100.0    5 
23/11/14   0:25   13.3   13.3   13.3    98   13.0   2.0   SSE   0.17   4.0   SSE   13.3   13.4   13.4  1013.9  0.00   0.0   0.018   0.000   24.5    54   14.6   24.6   9.83 1.1679    116    1    100.0    5 
23/11/14   0:30   13.3   13.3   13.3    98   13.0   2.0   SSE   0.17   3.0   SSE   13.3   13.4   13.4  1013.8  0.00   0.0   0.018   0.000   24.5    54   14.6   24.6   9.83 1.1678    116    1    100.0    5 
23/11/14   0:35   13.3   13.3   13.3    98   13.0   2.0   SSE   0.17   3.0   SSE   13.3   13.5   13.5  1013.8  0.00   0.0   0.017   0.000   24.5    54   14.6   24.6   9.83 1.1677    117    1    100.0    5 
23/11/14   0:40   13.3   13.3   13.3    98   13.0   2.0   SSE   0.17   3.0   SSE   13.3   13.5   13.5  1013.6  0.00   0.0   0.017   0.000   24.5    54   14.6   24.6   9.83 1.1675    116    1    100.0    5 
23/11/14   0:45   13.3   13.3   13.3    98   13.0   2.0   SSE   0.17   3.0   SSE   13.3   13.5   13.5  1013.5  0.00   0.0   0.017   0.000   24.4    54   14.5   24.6   9.83 1.1677    116    1    100.0    5 
23/11/14   0:50   13.3   13.4   13.3    98   13.0   2.0   ESE   0.17   3.0    SE   13.3   13.5   13.5  1013.6  0.00   0.0   0.017   0.000   24.4    54   14.5   24.6   9.83 1.1678    117    1    100.0    5 
23/11/14   0:55   13.4   13.4   13.3    98   13.1   1.0   ESE   0.08   2.0   ESE   13.4   13.6   13.6  1013.7  0.00   0.0   0.017   0.000   24.4    54   14.5   24.6   9.83 1.1679    117    1    100.0    5 
23/11/14   1:00   13.4   13.4   13.3    98   13.1   1.0   ESE   0.08   2.0   ESE   13.4   13.6   13.6  1013.7  0.00   0.0   0.017   0.000   24.4    54   14.5   24.6   9.83 1.1679    115    1    100.0    5 
23/11/14   1:05   13.4   13.4   13.3    98   13.1   2.0   ESE   0.17   3.0   ESE   13.4   13.6   13.6  1013.7  0.00   0.0   0.017   0.000   24.4    54   14.5   24.6   9.83 1.1679    116    1    100.0    5 
23/11/14   1:10   13.3   13.4   13.3    98   13.0   3.0     E   0.25   5.0     E   13.3   13.5   13.5  1013.4  0.00   0.0   0.017   0.000   24.4    54   14.5   24.6   9.83 1.1675    115    1    100.0    5 
23/11/14   1:15   13.3   13.4   13.3    98   13.0   3.0     E   0.25   6.0     E   13.3   13.5   13.5  1013.2  0.00   0.0   0.017   0.000   24.4    54   14.5   24.6   9.83 1.1673    117    1    100.0    5 
23/11/14   1:20   13.3   13.4   13.3    98   13.0   4.0     E   0.33   6.0     E   13.2   13.5   13.4  1013.2  0.00   0.0   0.017   0.000   24.4    54   14.5   24.6   9.83 1.1673    117    1    100.0    5 
23/11/14   1:25   13.4   13.4   13.3    98   13.1   4.0     E   0.33   7.0     E   13.3   13.6   13.4  1013.3  0.00   0.0   0.017   0.000   24.4    54   14.5   24.6   9.83 1.1678    116    1    100.0    5 
23/11/14   1:30   13.4   13.4   13.3    98   13.1   3.0   ESE   0.25   5.0     E   13.4   13.6   13.6  1013.4  0.00   0.0   0.017   0.000   24.4    54   14.5   24.6   9.83 1.1679    117    1    100.0    5 
23/11/14   1:35   13.3   13.4   13.3    98   13.0   4.0     E   0.33   7.0     E   13.2   13.5   13.4  1013.3  0.00   0.0   0.017   0.000   24.4    53   14.2   24.5   9.65 1.1681    117    1    100.0    5 
63862